WetterOnline ( https://www.wetteronline.de )

Wetter aktuell Prenzlau

Aktuelles Wetter: Grünow (57m)

6-stündlich | Neueste Meldungen
Ortszeit Temperatur Wetter
Sa, 02.03. 7:00 9.0° C bedeckt
Sa, 02.03. 1:00 7.4° C bewölkt
Fr, 01.03. 19:00 7.9° C bedeckt
Fr, 01.03. 13:00 9.1° C bedeckt
Fr, 01.03. 7:00 7.8° C bedeckt
Fr, 01.03. 1:00 6.8° C bedeckt
Do, 29.02. 19:00 5.2° C bewölkt
Do, 29.02. 13:00 6.6° C wolkig
Ortszeit Temperatur Wetter
Sa, 02.03. 8:00 9.4° C bewölkt
Sa, 02.03. 7:50 9.4° C Dunst
Sa, 02.03. 7:40 9.4° C Dunst
Sa, 02.03. 7:30 9.2° C leichter Regen
Sa, 02.03. 7:20 9.2° C leichter Regen
Sa, 02.03. 7:10 9.1° C Dunst
Sa, 02.03. 7:00 9.0° C bedeckt
Sa, 02.03. 6:30 9.0° C bedeckt
Sa, 02.03. 6:00 9.0° C bedeckt
Sa, 02.03. 5:30 8.6° C bedeckt
Sa, 02.03. 5:00 8.4° C Sprühregen
Ortszeit Relative Feuchte Sichtweite
Sa, 02.03. 7:00 99% 4.0 km
Sa, 02.03. 1:00 95% 3.6 km
Fr, 01.03. 19:00 92% 5.0 km
Fr, 01.03. 13:00 88% 5.0 km
Fr, 01.03. 7:00 94% 3.5 km
Fr, 01.03. 1:00 90% 7 km
Do, 29.02. 19:00 81% 19 km
Do, 29.02. 13:00 67% 29 km
Ortszeit Relative Feuchte Sichtweite
Sa, 02.03. 8:00 97% 5.0 km
Sa, 02.03. 7:50 97% -
Sa, 02.03. 7:40 98% -
Sa, 02.03. 7:30 99% 5.0 km
Sa, 02.03. 7:20 99% -
Sa, 02.03. 7:10 99% -
Sa, 02.03. 7:00 99% 4.0 km
Sa, 02.03. 6:30 98% 3.7 km
Sa, 02.03. 6:00 96% 5.0 km
Sa, 02.03. 5:30 97% 3.9 km
Sa, 02.03. 5:00 97% 4.1 km
Ortszeit Niederschlagsmenge Niederschlagsart
Sa, 02.03. 7:00 0.2 l/m2 in 12 Std. Regen
Sa, 02.03. 1:00 0.0 l/m2 in 6 Std. -
Fr, 01.03. 19:00 0.0 l/m2 in 12 Std. -
Fr, 01.03. 13:00 0.0 l/m2 in 6 Std. -
Fr, 01.03. 7:00 0.0 l/m2 in 12 Std. -
Fr, 01.03. 1:00 0.0 l/m2 in 6 Std. -
Do, 29.02. 19:00 0.0 l/m2 in 12 Std. -
Do, 29.02. 13:00 0.0 l/m2 in 6 Std. -
Ortszeit Niederschlagsmenge Niederschlagsart
Sa, 02.03. 8:00 <0.05 l/m2 in 1 Std. Regen
Sa, 02.03. 7:50 keine Meldung -
Sa, 02.03. 7:40 keine Meldung -
Sa, 02.03. 7:30 <0.05 l/m2 in 30 Min -
Sa, 02.03. 7:20 keine Meldung -
Sa, 02.03. 7:10 keine Meldung -
Sa, 02.03. 7:00 <0.05 l/m2 in 1 Std. Regen
Sa, 02.03. 6:30 <0.05 l/m2 in 30 Min Schneeregen
Sa, 02.03. 6:00 <0.05 l/m2 in 1 Std. Sprühregen
Sa, 02.03. 5:30 <0.05 l/m2 in 30 Min Schnee
Sa, 02.03. 5:00 0.1 l/m2 in 1 Std. Regen
Ortszeit Stärke Spitze Richtung
km/h Bft. km/h Grad Sektor
Sa, 02.03. 7:00 17 3 26 150° SO
Sa, 02.03. 1:00 11 2 22 110° O
Fr, 01.03. 19:00 7 2 22 150° SO
Fr, 01.03. 13:00 17 3 31 170° S
Fr, 01.03. 7:00 17 3 31 150° SO
Fr, 01.03. 1:00 17 3 28 130° SO
Do, 29.02. 19:00 13 3 35 120° SO
Do, 29.02. 13:00 24 4 39 160° S
Ortszeit Stärke Spitze Richtung
km/h Bft. km/h Grad Sektor
Sa, 02.03. 8:00 18 3 25 150° SO
Sa, 02.03. 7:50 18 3 - 150° SO
Sa, 02.03. 7:40 17 3 - 140° SO
Sa, 02.03. 7:30 14 3 22 150° SO
Sa, 02.03. 7:20 14 3 - 150° SO
Sa, 02.03. 7:10 15 3 - 150° SO
Sa, 02.03. 7:00 17 3 26 150° SO
Sa, 02.03. 6:30 18 3 25 150° SO
Sa, 02.03. 6:00 13 3 24 140° SO
Sa, 02.03. 5:30 11 2 19 130° SO
Sa, 02.03. 5:00 13 3 19 120° SO
Ortszeit Untergrenze Bedeckung Gattung
total tief tief mittel hoch
Sa, 02.03. 7:00 150 m 8/8 8/8 - - -
Sa, 02.03. 1:00 1500 m 8/8 7/8 - - -
Fr, 01.03. 19:00 6900 m 8/8 8/8 - - -
Fr, 01.03. 13:00 300 m 8/8 8/8 - - -
Fr, 01.03. 7:00 180 m 8/8 8/8 - - -
Fr, 01.03. 1:00 720 m 8/8 8/8 - - -
Do, 29.02. 19:00 750 m 8/8 7/8 - - -
Do, 29.02. 13:00 10500 m 8/8 0/8 - - -
Ortszeit Bedeckungsgrad in Achtel und Wolkenuntergrenze
Sa, 02.03. 8:00 7(180m)
Sa, 02.03. 7:50 7(180m)
Sa, 02.03. 7:40 7
Sa, 02.03. 7:30 7(150m) 7(360m) 8(510m)
Sa, 02.03. 7:20 7(150m) 7(360m) 8(510m)
Sa, 02.03. 7:10 8
Sa, 02.03. 7:00 4(150m) 6(480m) 8(990m)
Sa, 02.03. 6:30 8(150m)
Sa, 02.03. 6:00 8(210m)
Sa, 02.03. 5:30 7(240m) 8(420m)
Sa, 02.03. 5:00 4(300m) 8(420m)
Ortszeit Luftdruck NN (hPa) Tendenz (hPa in 3 Std.)
Sa, 02.03. 7:00 1006 + 0,2
Sa, 02.03. 1:00 1007 - 0,8
Fr, 01.03. 19:00 1008 + 0,7
Fr, 01.03. 13:00 1007 - 0,2
Fr, 01.03. 7:00 1008 - 0,4
Fr, 01.03. 1:00 1010 - 2,0
Do, 29.02. 19:00 1014 - 1,4
Do, 29.02. 13:00 1017 - 1,6
Ortszeit Luftdruck NN (hPa) Tendenz (hPa in 3 Std.)
Sa, 02.03. 8:00 1007 + 0,8
Sa, 02.03. 7:50 1007 keine Meldung
Sa, 02.03. 7:40 1007 keine Meldung
Sa, 02.03. 7:30 1006 + 0,5
Sa, 02.03. 7:20 1006 keine Meldung
Sa, 02.03. 7:10 1006 keine Meldung
Sa, 02.03. 7:00 1006 + 0,2
Sa, 02.03. 6:30 1006 - 0,2
Sa, 02.03. 6:00 1006 - 0,3
Sa, 02.03. 5:30 1006 - 0,6
Sa, 02.03. 5:00 1006 - 1,0
Ortszeit Schneehöhe (cm)
Sa, 02.03. 7:00 0
Sa, 02.03. 1:00 0
Fr, 01.03. 19:00 0
Fr, 01.03. 13:00 0
Fr, 01.03. 7:00 0
Fr, 01.03. 1:00 0
Do, 29.02. 19:00 0
Do, 29.02. 13:00 0
Ortszeit Schneehöhe (cm)
Sa, 02.03. 8:00 0
Sa, 02.03. 7:50 0
Sa, 02.03. 7:40 -
Sa, 02.03. 7:30 0
Sa, 02.03. 7:20 0
Sa, 02.03. 7:10 -
Sa, 02.03. 7:00 0
Sa, 02.03. 6:30 0
Sa, 02.03. 6:00 0
Sa, 02.03. 5:30 0
Sa, 02.03. 5:00 0
Link zu dieser Seite / Seite empfehlen

Das Wetter in ...